createdAt,value
2022-10-05T00:01:35.383Z,6.27
2022-10-05T00:04:39.216Z,6.70
2022-10-05T00:07:48.192Z,7.10
2022-10-05T00:10:55.570Z,6.33
2022-10-05T00:14:08.150Z,6.90
2022-10-05T00:17:21.774Z,7.93
2022-10-05T00:20:32.364Z,7.50
2022-10-05T00:23:37.740Z,6.60
2022-10-05T00:26:52.655Z,6.70
2022-10-05T00:30:19.261Z,5.80
2022-10-05T00:34:00.214Z,6.67
2022-10-05T00:37:09.443Z,10.23
2022-10-05T00:40:38.253Z,10.23
2022-10-05T00:44:25.605Z,9.73
2022-10-05T00:47:49.841Z,11.60
2022-10-05T00:51:32.554Z,11.50
2022-10-05T00:55:03.202Z,8.33
2022-10-05T00:58:56.013Z,13.43
2022-10-05T01:02:13.986Z,16.60
2022-10-05T01:05:40.330Z,11.07
2022-10-05T01:08:59.701Z,20.60
2022-10-05T01:12:11.953Z,20.23
2022-10-05T01:15:27.470Z,9.27
2022-10-05T01:18:41.521Z,8.03
2022-10-05T01:22:02.106Z,9.00
2022-10-05T01:25:23.093Z,8.67
2022-10-05T01:28:31.497Z,13.60
2022-10-05T01:31:42.801Z,7.67
2022-10-05T01:34:55.162Z,6.83
2022-10-05T01:38:12.717Z,6.70
2022-10-05T01:41:30.635Z,7.00
2022-10-05T01:44:45.239Z,7.63
2022-10-05T01:47:52.610Z,9.20
2022-10-05T01:51:06.482Z,8.67
2022-10-05T01:54:23.963Z,8.20
2022-10-05T01:57:39.676Z,6.47
2022-10-05T02:00:53.162Z,7.73
2022-10-05T02:04:04.902Z,10.70
2022-10-05T02:07:15.073Z,8.57
2022-10-05T02:10:25.306Z,6.93
2022-10-05T02:13:35.013Z,7.47
2022-10-05T02:16:42.974Z,7.87
2022-10-05T02:19:51.366Z,11.57
2022-10-05T02:22:59.478Z,10.43
2022-10-05T02:26:02.998Z,11.13
2022-10-05T02:29:11.845Z,8.83
2022-10-05T02:32:22.890Z,7.17
2022-10-05T02:35:25.994Z,7.43
2022-10-05T02:38:38.271Z,6.83
2022-10-05T02:41:51.496Z,6.27
2022-10-05T02:45:05.844Z,6.80
2022-10-05T02:48:16.388Z,6.63
2022-10-05T02:51:25.554Z,6.07
2022-10-05T02:54:45.255Z,7.00
2022-10-05T02:57:59.378Z,6.73
2022-10-05T03:01:12.778Z,6.93
2022-10-05T03:04:29.377Z,6.77
2022-10-05T03:07:40.344Z,7.03
2022-10-05T03:10:50.650Z,6.73
2022-10-05T03:14:03.801Z,6.73
2022-10-05T03:17:14.695Z,8.37
2022-10-05T03:20:34.614Z,8.20
2022-10-05T03:23:50.890Z,8.43
2022-10-05T03:27:02.836Z,8.80
2022-10-05T03:30:12.499Z,8.73
2022-10-05T03:33:23.977Z,9.00
2022-10-05T03:36:35.357Z,8.03
2022-10-05T03:39:45.003Z,8.83
2022-10-05T03:43:03.202Z,10.47
2022-10-05T03:46:14.987Z,8.73
2022-10-05T03:49:26.075Z,8.17
2022-10-05T03:52:37.510Z,8.33
2022-10-05T03:55:47.086Z,7.90
2022-10-05T03:58:58.185Z,7.73
2022-10-05T04:02:04.035Z,7.63
2022-10-05T04:05:17.943Z,7.13
2022-10-05T04:08:30.412Z,7.80
2022-10-05T04:11:39.124Z,7.03
2022-10-05T04:14:47.875Z,7.87
2022-10-05T04:17:56.927Z,7.53
2022-10-05T04:21:06.039Z,8.27
2022-10-05T04:24:18.224Z,7.97
2022-10-05T04:27:25.944Z,7.33
2022-10-05T04:30:30.052Z,7.37
2022-10-05T04:33:34.225Z,6.70
2022-10-05T04:36:47.222Z,7.53
2022-10-05T04:40:09.692Z,7.30
2022-10-05T04:43:18.540Z,7.27
2022-10-05T04:46:39.315Z,6.83
2022-10-05T04:50:16.949Z,7.40
2022-10-05T04:53:40.873Z,7.30
2022-10-05T04:56:51.488Z,10.17
2022-10-05T05:00:10.284Z,8.47
2022-10-05T05:03:35.989Z,6.37
2022-10-05T05:06:48.176Z,8.20
2022-10-05T05:10:24.122Z,7.73
2022-10-05T05:14:08.431Z,7.23
2022-10-05T05:17:30.464Z,7.80
2022-10-05T05:20:49.359Z,7.13
2022-10-05T05:24:05.103Z,7.30
2022-10-05T05:27:39.889Z,7.30
2022-10-05T05:30:50.703Z,7.57
2022-10-05T05:34:07.345Z,7.03
2022-10-05T05:37:24.528Z,6.93
2022-10-05T05:40:34.041Z,7.57
2022-10-05T05:43:53.204Z,7.33
2022-10-05T05:47:04.863Z,7.23
2022-10-05T05:50:35.585Z,8.40
2022-10-05T05:53:49.169Z,7.67
2022-10-05T05:57:04.408Z,6.43
2022-10-05T06:00:19.802Z,6.97
2022-10-05T06:03:37.946Z,7.67
2022-10-05T06:06:46.957Z,8.63
2022-10-05T06:09:58.323Z,7.67
2022-10-05T06:13:18.776Z,6.47
2022-10-05T06:16:26.760Z,8.23
2022-10-05T06:19:34.551Z,8.60
2022-10-05T06:22:43.664Z,9.13
2022-10-05T06:26:10.408Z,8.33
2022-10-05T06:29:20.453Z,7.57
2022-10-05T06:32:30.663Z,6.50
2022-10-05T06:35:54.115Z,6.70
2022-10-05T06:39:29.953Z,7.83
2022-10-05T06:42:52.310Z,7.20
2022-10-05T06:46:23.831Z,6.00
2022-10-05T06:49:45.597Z,5.97
2022-10-05T06:53:31.576Z,6.30
2022-10-05T06:56:44.727Z,5.63
2022-10-05T07:00:19.498Z,6.63
2022-10-05T07:03:41.692Z,6.20
2022-10-05T07:06:54.352Z,6.13
2022-10-05T07:10:18.762Z,6.43
2022-10-05T07:13:44.057Z,6.03
2022-10-05T07:17:09.298Z,6.00
2022-10-05T07:20:20.027Z,5.57
2022-10-05T07:23:37.997Z,5.40
2022-10-05T07:26:47.281Z,5.43
2022-10-05T07:29:59.493Z,5.53
2022-10-05T07:33:14.591Z,5.13
2022-10-05T07:36:42.607Z,5.77
2022-10-05T07:40:00.438Z,5.57
2022-10-05T07:43:22.769Z,6.27
2022-10-05T07:46:30.708Z,6.20
2022-10-05T07:49:43.858Z,6.20
2022-10-05T07:52:56.472Z,5.93
2022-10-05T07:56:04.598Z,6.77
2022-10-05T07:59:17.355Z,5.53
2022-10-05T08:02:28.205Z,4.13
2022-10-05T08:05:33.865Z,4.80
2022-10-05T08:08:49.165Z,7.03
2022-10-05T08:12:00.512Z,6.27
2022-10-05T08:15:12.977Z,6.73
2022-10-05T08:18:22.851Z,6.73
2022-10-05T08:21:31.883Z,5.60
2022-10-05T08:24:44.644Z,6.27
2022-10-05T08:27:53.200Z,4.63
2022-10-05T08:31:04.382Z,4.73
2022-10-05T08:34:27.464Z,4.30
2022-10-05T08:37:35.491Z,8.87
2022-10-05T08:41:25.211Z,5.53
2022-10-05T08:45:15.745Z,5.63
2022-10-05T08:49:14.021Z,4.60
2022-10-05T08:52:29.864Z,5.17
2022-10-05T08:55:44.660Z,4.13
2022-10-05T08:59:11.703Z,5.27
2022-10-05T09:02:28.171Z,4.77
2022-10-05T09:06:14.531Z,4.53
2022-10-05T09:10:12.632Z,5.00
2022-10-05T09:13:40.678Z,4.63
2022-10-05T09:17:20.994Z,9.37
2022-10-05T09:20:32.216Z,6.07
2022-10-05T09:23:42.929Z,5.70
2022-10-05T09:27:00.433Z,6.82
2022-10-05T09:30:26.949Z,6.15
2022-10-05T09:34:19.084Z,5.18
2022-10-05T09:37:46.323Z,6.10
2022-10-05T09:41:35.142Z,4.78
2022-10-05T09:45:36.161Z,5.15
2022-10-05T09:49:10.938Z,5.28
2022-10-05T09:52:37.686Z,5.07
2022-10-05T10:00:10.380Z,5.15
2022-10-05T10:04:17.165Z,6.00
2022-10-05T10:08:05.702Z,5.65
2022-10-05T10:11:24.875Z,5.15
2022-10-05T10:15:29.269Z,5.82
2022-10-05T10:18:55.646Z,6.65
2022-10-05T10:22:33.958Z,5.70
2022-10-05T10:26:06.523Z,4.95
2022-10-05T10:29:34.755Z,4.97
2022-10-05T10:33:18.926Z,5.70
2022-10-05T10:36:38.286Z,5.05
2022-10-05T10:40:04.839Z,5.00
2022-10-05T10:43:35.139Z,4.80
2022-10-05T10:46:51.017Z,5.70
2022-10-05T10:50:26.228Z,4.60
2022-10-05T10:53:42.458Z,4.63
2022-10-05T10:56:55.428Z,4.35
2022-10-05T11:00:35.020Z,5.18
2022-10-05T11:04:24.368Z,4.75
2022-10-05T11:07:55.010Z,5.20
2022-10-05T11:11:22.115Z,4.93
2022-10-05T11:14:51.580Z,5.30
2022-10-05T11:18:10.266Z,5.35
2022-10-05T11:21:30.370Z,5.32
2022-10-05T11:24:59.702Z,5.03
2022-10-05T11:28:28.419Z,4.68
2022-10-05T11:32:02.359Z,4.22
2022-10-05T11:35:40.012Z,4.60
2022-10-05T11:39:25.568Z,5.63
2022-10-05T11:42:57.371Z,4.72
2022-10-05T11:46:11.743Z,4.80
2022-10-05T11:49:29.340Z,4.43
2022-10-05T11:52:39.214Z,4.65
2022-10-05T11:55:46.643Z,4.70
2022-10-05T11:58:57.491Z,4.20
2022-10-05T12:03:10.802Z,4.70
2022-10-05T12:07:03.510Z,4.80
2022-10-05T12:10:24.783Z,4.75
2022-10-05T12:13:41.748Z,5.97
2022-10-05T12:16:52.889Z,4.13
2022-10-05T12:19:59.898Z,4.85
2022-10-05T12:23:11.541Z,4.60
2022-10-05T12:26:17.822Z,4.20
2022-10-05T12:29:28.391Z,4.45
2022-10-05T12:32:37.237Z,4.25
2022-10-05T12:35:49.023Z,4.35
2022-10-05T12:38:59.401Z,4.38
2022-10-05T12:42:17.144Z,4.88
2022-10-05T12:45:36.509Z,3.75
2022-10-05T12:49:28.588Z,5.13
2022-10-05T12:52:50.758Z,4.00
2022-10-05T12:56:02.813Z,3.63
2022-10-05T12:59:17.581Z,3.45
2022-10-05T13:02:36.790Z,3.45
2022-10-05T13:05:49.768Z,3.28
2022-10-05T13:09:00.163Z,3.00
2022-10-05T13:12:10.084Z,3.05
2022-10-05T13:15:21.462Z,3.45
2022-10-05T13:18:35.928Z,2.95
2022-10-05T13:22:02.775Z,3.38
2022-10-05T13:25:21.697Z,3.92
2022-10-05T13:28:32.455Z,3.50
2022-10-05T13:31:42.259Z,3.22
2022-10-05T13:34:56.012Z,3.15
2022-10-05T13:38:14.636Z,3.50
2022-10-05T13:41:30.712Z,3.72
2022-10-05T13:44:43.820Z,3.40
2022-10-05T13:48:06.744Z,3.13
2022-10-05T13:51:20.324Z,4.15
2022-10-05T13:54:33.710Z,3.35
2022-10-05T13:57:49.642Z,3.45
2022-10-05T14:00:56.369Z,3.70
2022-10-05T14:04:19.074Z,4.57
2022-10-05T14:07:32.229Z,3.45
2022-10-05T14:10:41.984Z,3.22
2022-10-05T14:13:48.589Z,3.92
2022-10-05T14:16:54.431Z,3.53
2022-10-05T14:20:03.379Z,3.13
2022-10-05T14:23:18.542Z,3.55
2022-10-05T14:26:36.820Z,3.55
2022-10-05T14:29:40.146Z,3.40
2022-10-05T14:32:51.596Z,3.58
2022-10-05T14:35:57.499Z,3.08
2022-10-05T14:39:05.022Z,3.90
2022-10-05T14:42:18.076Z,5.07
2022-10-05T14:45:23.599Z,3.70
2022-10-05T14:48:28.849Z,3.78
2022-10-05T14:51:33.582Z,4.07
2022-10-05T14:54:52.327Z,3.85
2022-10-05T14:58:23.851Z,3.92
2022-10-05T15:01:34.170Z,3.90
2022-10-05T15:04:43.712Z,3.60
2022-10-05T15:07:50.271Z,3.88
2022-10-05T15:11:01.814Z,3.88
2022-10-05T15:14:15.921Z,3.15
2022-10-05T15:17:28.421Z,3.92
2022-10-05T15:20:43.726Z,3.53
2022-10-05T15:23:53.167Z,3.75
2022-10-05T15:27:00.305Z,3.40
2022-10-05T15:30:11.142Z,3.72
2022-10-05T15:33:22.490Z,3.60
2022-10-05T15:36:35.628Z,4.68
2022-10-05T15:39:48.349Z,3.80
2022-10-05T15:42:57.075Z,3.95
2022-10-05T15:46:08.648Z,4.07
2022-10-05T15:49:25.105Z,3.83
2022-10-05T15:52:35.375Z,3.63
2022-10-05T15:55:44.264Z,3.72
2022-10-05T15:58:55.525Z,3.15
2022-10-05T16:02:02.115Z,4.20
2022-10-05T16:05:41.550Z,3.60
2022-10-05T16:09:01.513Z,4.18
2022-10-05T16:12:19.907Z,4.05
2022-10-05T16:15:33.532Z,4.03
2022-10-05T16:18:54.917Z,4.47
2022-10-05T16:22:08.197Z,4.40
2022-10-05T16:25:23.406Z,3.90
2022-10-05T16:28:39.261Z,3.83
2022-10-05T16:31:54.009Z,3.75
2022-10-05T16:35:14.778Z,4.80
2022-10-05T16:38:30.012Z,4.35
2022-10-05T16:41:42.753Z,4.68
2022-10-05T16:44:55.438Z,4.40
2022-10-05T16:48:07.469Z,4.28
2022-10-05T16:51:28.386Z,4.72
2022-10-05T16:54:37.399Z,6.03
2022-10-05T16:57:46.437Z,7.55
2022-10-05T17:01:08.903Z,5.82
2022-10-05T17:04:28.529Z,6.03
2022-10-05T17:07:53.057Z,6.82
2022-10-05T17:11:07.414Z,5.53
2022-10-05T17:14:28.005Z,4.88
2022-10-05T17:18:00.774Z,5.05
2022-10-05T17:21:12.855Z,5.88
2022-10-05T17:24:34.316Z,5.95
2022-10-05T17:27:53.408Z,5.82
2022-10-05T17:31:16.398Z,5.97
2022-10-05T17:34:28.919Z,6.15
2022-10-05T17:37:40.111Z,7.20
2022-10-05T17:41:11.373Z,8.02
2022-10-05T17:44:26.291Z,7.77
2022-10-05T17:47:56.602Z,9.70
2022-10-05T17:51:17.559Z,7.07
2022-10-05T17:54:41.936Z,6.57
2022-10-05T17:57:44.951Z,6.37
2022-10-05T18:01:30.902Z,5.83
2022-10-05T18:05:18.268Z,6.70
2022-10-05T18:17:56.629Z,6.27
2022-10-05T18:21:39.294Z,6.63
2022-10-05T18:25:03.563Z,9.70
2022-10-05T18:28:19.672Z,7.23
2022-10-05T18:31:34.262Z,9.03
2022-10-05T18:34:44.770Z,8.43
2022-10-05T18:38:01.998Z,8.03
2022-10-05T18:41:13.204Z,9.63
2022-10-05T18:44:35.706Z,8.20
2022-10-05T18:47:48.248Z,7.80
2022-10-05T18:51:00.347Z,7.20
2022-10-05T18:54:17.724Z,7.93
2022-10-05T18:58:16.011Z,7.90
2022-10-05T19:01:47.657Z,7.50
2022-10-05T19:05:29.176Z,7.43
2022-10-05T19:08:42.377Z,7.47
2022-10-05T19:11:53.445Z,8.17
2022-10-05T19:15:06.600Z,8.00
2022-10-05T19:18:26.600Z,8.40
2022-10-05T19:21:40.367Z,8.87
2022-10-05T19:24:57.202Z,8.47
2022-10-05T19:28:12.461Z,7.33
2022-10-05T19:31:31.011Z,7.87
2022-10-05T19:34:50.822Z,7.20
2022-10-05T19:38:15.509Z,6.30
2022-10-05T19:41:22.731Z,6.90
2022-10-05T19:44:46.977Z,6.30
2022-10-05T19:49:00.832Z,7.90
2022-10-05T19:52:14.431Z,7.03
2022-10-05T19:55:27.235Z,6.57
2022-10-05T19:58:34.119Z,5.40
2022-10-05T20:01:40.411Z,5.33
2022-10-05T20:04:57.935Z,6.80
2022-10-05T20:08:06.017Z,5.70
2022-10-05T20:12:12.500Z,6.73
2022-10-05T20:15:40.305Z,7.63
2022-10-05T20:23:30.064Z,7.13
2022-10-05T20:26:59.588Z,6.87
2022-10-05T20:30:25.642Z,6.80
2022-10-05T20:33:46.407Z,6.77
2022-10-05T20:36:57.357Z,6.90
2022-10-05T20:40:37.813Z,7.03
2022-10-05T20:43:45.972Z,6.90
2022-10-05T20:47:18.094Z,7.17
2022-10-05T20:50:32.861Z,7.63
2022-10-05T20:53:36.107Z,7.80
2022-10-05T20:56:39.156Z,10.00
2022-10-05T20:59:43.453Z,9.43
2022-10-05T21:02:46.789Z,6.37
2022-10-05T21:05:49.895Z,5.53
2022-10-05T21:08:54.168Z,5.97
2022-10-05T21:11:57.152Z,5.77
2022-10-05T21:15:04.616Z,5.40
2022-10-05T21:18:07.636Z,5.80
2022-10-05T21:21:11.025Z,5.57
2022-10-05T21:24:15.704Z,5.93
2022-10-05T21:27:18.651Z,5.37
2022-10-05T21:30:23.006Z,4.90
2022-10-05T21:33:26.579Z,7.23
2022-10-05T21:36:30.084Z,7.07
2022-10-05T21:39:35.098Z,5.83
2022-10-05T21:42:38.439Z,9.30
2022-10-05T21:45:43.761Z,6.88
2022-10-05T21:48:47.341Z,5.68
2022-10-05T21:51:50.285Z,6.43
2022-10-05T21:54:57.762Z,6.00
2022-10-05T21:58:16.639Z,5.03
2022-10-05T22:01:37.103Z,6.03
2022-10-05T22:04:46.628Z,6.27
2022-10-05T22:07:58.166Z,6.65
2022-10-05T22:11:14.474Z,6.53
2022-10-05T22:14:57.799Z,5.80
2022-10-05T22:18:14.000Z,5.77
2022-10-05T22:21:27.907Z,6.28
2022-10-05T22:24:36.969Z,6.88
2022-10-05T22:27:57.565Z,6.13
2022-10-05T22:31:15.813Z,7.70
2022-10-05T22:34:32.112Z,8.60
2022-10-05T22:37:59.392Z,5.93
2022-10-05T22:41:38.631Z,4.97
2022-10-05T22:44:46.124Z,7.05
2022-10-05T22:48:10.508Z,6.47
2022-10-05T22:51:19.468Z,6.10
2022-10-05T22:54:26.332Z,8.50
2022-10-05T22:57:39.143Z,5.60
2022-10-05T23:00:57.433Z,7.03
2022-10-05T23:04:01.184Z,6.50
2022-10-05T23:07:06.459Z,5.50
2022-10-05T23:10:12.888Z,5.77
2022-10-05T23:13:16.368Z,6.17
2022-10-05T23:16:22.788Z,5.63
2022-10-05T23:19:25.718Z,5.87
2022-10-05T23:22:30.035Z,6.50
2022-10-05T23:25:32.949Z,6.97
2022-10-05T23:28:35.982Z,6.53
2022-10-05T23:31:38.966Z,6.20
2022-10-05T23:34:41.882Z,6.23
2022-10-05T23:37:46.401Z,6.47
2022-10-05T23:40:49.390Z,6.63
2022-10-05T23:43:54.643Z,6.73
2022-10-05T23:46:57.598Z,6.80
2022-10-05T23:50:00.582Z,6.30
2022-10-05T23:53:05.172Z,7.23
2022-10-05T23:56:30.226Z,7.47
2022-10-05T23:59:55.846Z,7.37
